createdAt,value
2022-09-06T00:00:43.825Z,98664.13
2022-09-06T00:03:50.795Z,98660.94
2022-09-06T00:06:52.597Z,98667.63
2022-09-06T00:09:54.194Z,98667.78
2022-09-06T00:12:55.852Z,98655.34
2022-09-06T00:15:57.342Z,98665.69
2022-09-06T00:19:03.282Z,98660.53
2022-09-06T00:22:05.477Z,98661.91
2022-09-06T00:25:07.326Z,98659.34
2022-09-06T00:28:09.333Z,98654.19
2022-09-06T00:31:12.203Z,98647.19
2022-09-06T00:34:17.288Z,98643.03
2022-09-06T00:37:18.789Z,98637.16
2022-09-06T00:40:20.957Z,98640.13
2022-09-06T00:43:22.675Z,98636.09
2022-09-06T00:46:28.330Z,98643.50
2022-09-06T00:49:32.859Z,98638.34
2022-09-06T00:52:38.008Z,98632.19
2022-09-06T00:55:41.643Z,98631.31
2022-09-06T00:58:43.674Z,98637.16
2022-09-06T01:01:52.489Z,98633.00
2022-09-06T01:04:59.796Z,98624.38
2022-09-06T01:08:05.916Z,98627.34
2022-09-06T01:11:19.281Z,98621.94
2022-09-06T01:14:25.880Z,98617.75
2022-09-06T01:17:33.216Z,98619.75
2022-09-06T01:20:45.304Z,98615.31
2022-09-06T01:24:00.116Z,98613.59
2022-09-06T01:27:28.965Z,98603.03
2022-09-06T01:30:34.495Z,98608.97
2022-09-06T01:33:40.866Z,98599.13
2022-09-06T01:37:06.314Z,98601.38
2022-09-06T01:40:06.709Z,98594.97
2022-09-06T01:43:13.261Z,98589.03
2022-09-06T01:46:20.393Z,98597.44
2022-09-06T01:49:26.940Z,98593.88
2022-09-06T01:52:31.325Z,98595.56
2022-09-06T01:55:35.619Z,98604.69
2022-09-06T01:58:51.640Z,98597.94
2022-09-06T02:02:00.869Z,98588.72
2022-09-06T02:05:05.015Z,98580.72
2022-09-06T02:08:08.849Z,98574.56
2022-09-06T02:11:11.017Z,98581.97
2022-09-06T02:14:15.976Z,98587.78
2022-09-06T02:17:21.916Z,98585.56
2022-09-06T02:20:25.509Z,98589.78
2022-09-06T02:23:29.126Z,98590.88
2022-09-06T02:26:33.091Z,98588.19
2022-09-06T02:29:35.645Z,98572.94
2022-09-06T02:32:40.458Z,98574.06
2022-09-06T02:35:42.972Z,98576.03
2022-09-06T02:38:44.964Z,98581.56
2022-09-06T02:41:48.302Z,98575.91
2022-09-06T02:44:50.142Z,98566.78
2022-09-06T02:47:53.032Z,98568.38
2022-09-06T02:50:54.829Z,98567.38
2022-09-06T02:53:56.904Z,98566.53
2022-09-06T02:56:58.373Z,98566.66
2022-09-06T03:00:00.030Z,98559.41
2022-09-06T03:03:07.435Z,98566.06
2022-09-06T03:06:09.050Z,98570.34
2022-09-06T03:09:10.689Z,98562.25
2022-09-06T03:12:12.505Z,98570.34
2022-09-06T03:15:14.809Z,98571.63
2022-09-06T03:18:18.092Z,98564.59
2022-09-06T03:21:19.610Z,98563.72
2022-09-06T03:24:21.387Z,98567.41
2022-09-06T03:27:23.018Z,98559.44
2022-09-06T03:30:24.518Z,98557.59
2022-09-06T03:33:27.683Z,98556.28
2022-09-06T03:36:29.856Z,98555.41
2022-09-06T03:39:31.459Z,98545.69
2022-09-06T03:42:33.131Z,98553.06
2022-09-06T03:45:34.657Z,98548.06
2022-09-06T03:48:37.805Z,98544.75
2022-09-06T03:51:39.497Z,98539.34
2022-09-06T03:54:40.984Z,98539.72
2022-09-06T03:57:42.532Z,98540.09
2022-09-06T04:00:45.305Z,98540.09
2022-09-06T04:03:48.241Z,98535.19
2022-09-06T04:06:49.715Z,98530.91
2022-09-06T04:09:54.267Z,98530.63
2022-09-06T04:12:55.878Z,98529.78
2022-09-06T04:16:00.066Z,98524.38
2022-09-06T04:19:04.331Z,98528.53
2022-09-06T04:22:05.972Z,98532.97
2022-09-06T04:25:08.211Z,98524.97
2022-09-06T04:28:09.774Z,98533.22
2022-09-06T04:31:11.226Z,98536.03
2022-09-06T04:34:14.269Z,98536.91
2022-09-06T04:37:20.153Z,98566.66
2022-09-06T04:40:24.647Z,98588.25
2022-09-06T04:43:26.562Z,98560.91
2022-09-06T04:46:29.897Z,98576.59
2022-09-06T04:49:32.861Z,98571.06
2022-09-06T04:52:34.636Z,98541.94
2022-09-06T04:55:37.267Z,98545.63
2022-09-06T04:58:38.834Z,98537.28
2022-09-06T05:01:40.455Z,98537.28
2022-09-06T05:04:45.059Z,98548.22
2022-09-06T05:07:46.707Z,98550.78
2022-09-06T05:10:51.062Z,98547.47
2022-09-06T05:13:52.653Z,98547.47
2022-09-06T05:16:54.556Z,98545.38
2022-09-06T05:19:57.741Z,98540.69
2022-09-06T05:22:59.403Z,98542.53
2022-09-06T05:26:01.207Z,98546.09
2022-09-06T05:29:03.325Z,98536.41
2022-09-06T05:32:13.011Z,98542.53
2022-09-06T05:35:22.528Z,98540.09
2022-09-06T05:38:28.189Z,98571.91
2022-09-06T05:41:35.251Z,98574.16
2022-09-06T05:44:37.403Z,98569.47
2022-09-06T05:47:39.352Z,98562.81
2022-09-06T05:50:43.166Z,98561.72
2022-09-06T05:53:45.907Z,98577.97
2022-09-06T05:56:47.845Z,98570.84
2022-09-06T05:59:49.694Z,98573.41
2022-09-06T06:02:51.519Z,98579.69
2022-09-06T06:05:54.491Z,98589.38
2022-09-06T06:08:56.501Z,98588.78
2022-09-06T06:11:58.186Z,98580.78
2022-09-06T06:14:59.720Z,98584.59
2022-09-06T06:18:01.225Z,98585.56
2022-09-06T06:21:12.166Z,98582.88
2022-09-06T06:24:13.694Z,98589.13
2022-09-06T06:27:15.768Z,98580.44
2022-09-06T06:30:18.568Z,98579.69
2022-09-06T06:33:20.440Z,98577.97
2022-09-06T06:36:27.361Z,98578.97
2022-09-06T06:39:29.290Z,98567.88
2022-09-06T06:42:30.993Z,98567.63
2022-09-06T06:45:32.539Z,98574.50
2022-09-06T06:48:34.465Z,98579.78
2022-09-06T06:51:37.967Z,98574.72
2022-09-06T06:54:39.998Z,98565.59
2022-09-06T06:57:41.625Z,98570.66
2022-09-06T07:00:43.822Z,98573.94
2022-09-06T07:03:45.727Z,98585.50
2022-09-06T07:13:36.092Z,98581.53
2022-09-06T07:16:37.866Z,98578.06
2022-09-06T07:26:28.604Z,98558.38
2022-09-06T07:29:31.169Z,98567.28
2022-09-06T07:32:34.537Z,98569.69
2022-09-06T07:35:36.175Z,98576.13
2022-09-06T07:38:39.206Z,98574.50
2022-09-06T07:41:42.699Z,98588.59
2022-09-06T07:44:44.285Z,98580.97
2022-09-06T07:51:05.036Z,98565.84
2022-09-06T07:57:30.119Z,98565.13
2022-09-06T08:00:36.121Z,98572.16
2022-09-06T08:03:37.864Z,98570.63
2022-09-06T08:10:03.790Z,98572.09
2022-09-06T08:13:05.489Z,98575.81
2022-09-06T08:16:07.998Z,98572.09
2022-09-06T08:19:11.045Z,98573.09
2022-09-06T08:22:12.771Z,98574.97
2022-09-06T08:25:15.884Z,98580.41
2022-09-06T08:28:22.804Z,98579.47
2022-09-06T08:31:28.210Z,98571.50
2022-09-06T08:34:30.304Z,98560.34
2022-09-06T08:37:32.074Z,98565.78
2022-09-06T08:40:35.280Z,98565.56
2022-09-06T08:43:38.087Z,98559.28
2022-09-06T08:46:41.265Z,98554.25
2022-09-06T08:49:45.077Z,98564.00
2022-09-06T08:53:06.514Z,98560.38
2022-09-06T08:56:17.388Z,98557.94
2022-09-06T08:59:20.464Z,98551.19
2022-09-06T09:02:22.689Z,98560.66
2022-09-06T09:05:26.722Z,98551.59
2022-09-06T09:08:32.886Z,98539.09
2022-09-06T09:11:36.496Z,98529.09
2022-09-06T09:14:39.604Z,98536.81
2022-09-06T09:17:41.546Z,98535.84
2022-09-06T09:20:43.265Z,98539.09
2022-09-06T09:23:47.750Z,98529.81
2022-09-06T09:26:52.775Z,98532.69
2022-09-06T09:33:23.252Z,98530.75
2022-09-06T09:36:25.081Z,98532.47
2022-09-06T09:39:33.697Z,98521.03
2022-09-06T09:42:37.439Z,98514.84
2022-09-06T09:45:39.518Z,98515.09
2022-09-06T09:48:42.001Z,98508.69
2022-09-06T09:51:45.213Z,98514.25
2022-09-06T09:54:50.750Z,98513.84
2022-09-06T09:57:54.407Z,98510.66
2022-09-06T10:01:10.001Z,98507.47
2022-09-06T10:07:42.842Z,98503.13
2022-09-06T10:10:47.574Z,98506.66
2022-09-06T10:13:52.312Z,98510.13
2022-09-06T10:16:57.459Z,98501.91
2022-09-06T10:20:05.486Z,98511.66
2022-09-06T10:23:11.733Z,98507.91
2022-09-06T10:26:19.175Z,98501.97
2022-09-06T10:29:28.289Z,98487.50
2022-09-06T10:32:37.034Z,98500.69
2022-09-06T10:35:38.581Z,98499.09
2022-09-06T10:38:53.534Z,98500.25
2022-09-06T10:42:02.022Z,98496.81
2022-09-06T10:45:14.816Z,98497.38
2022-09-06T10:48:19.049Z,98493.63
2022-09-06T10:51:30.731Z,98479.03
2022-09-06T10:54:33.698Z,98487.69
2022-09-06T11:01:06.035Z,98483.03
2022-09-06T11:04:12.819Z,98474.19
2022-09-06T11:07:21.264Z,98474.38
2022-09-06T11:10:26.381Z,98473.06
2022-09-06T11:13:28.418Z,98469.84
2022-09-06T11:16:34.079Z,98460.50
2022-09-06T11:19:40.762Z,98469.09
2022-09-06T11:22:52.462Z,98463.22
2022-09-06T11:26:09.221Z,98464.25
2022-09-06T11:29:17.749Z,98470.97
2022-09-06T11:32:33.231Z,98470.84
2022-09-06T11:35:36.051Z,98461.47
2022-09-06T11:38:40.853Z,98464.03
2022-09-06T11:41:42.828Z,98468.63
2022-09-06T11:44:52.998Z,98458.22
2022-09-06T11:47:56.134Z,98468.63
2022-09-06T11:51:02.723Z,98471.91
2022-09-06T11:54:06.943Z,98470.19
2022-09-06T11:57:14.763Z,98466.44
2022-09-06T12:00:18.975Z,98468.47
2022-09-06T12:07:09.646Z,98459.25
2022-09-06T12:10:29.937Z,98466.56
2022-09-06T12:13:49.433Z,98463.47
2022-09-06T12:17:10.005Z,98462.66
2022-09-06T12:20:11.749Z,98463.81
2022-09-06T12:23:40.403Z,98457.97
2022-09-06T12:26:54.461Z,98452.59
2022-09-06T12:29:58.531Z,98459.94
2022-09-06T12:33:00.895Z,98454.03
2022-09-06T12:36:12.609Z,98452.38
2022-09-06T12:39:15.696Z,98442.13
2022-09-06T12:42:17.345Z,98439.50
2022-09-06T12:45:21.192Z,98443.03
2022-09-06T12:48:28.728Z,98433.06
2022-09-06T12:51:31.065Z,98432.56
2022-09-06T12:54:41.095Z,98433.00
2022-09-06T12:57:47.540Z,98427.81
2022-09-06T13:00:52.047Z,98426.34
2022-09-06T13:03:57.778Z,98421.25
2022-09-06T13:07:00.671Z,98420.41
2022-09-06T13:10:04.277Z,98418.03
2022-09-06T13:13:07.403Z,98413.22
2022-09-06T13:16:08.923Z,98419.84
2022-09-06T13:19:11.704Z,98413.84
2022-09-06T13:22:33.661Z,98406.97
2022-09-06T13:25:46.272Z,98406.28
2022-09-06T13:28:48.279Z,98400.34
2022-09-06T13:31:51.915Z,98399.16
2022-09-06T13:34:57.234Z,98399.53
2022-09-06T13:38:17.676Z,98396.94
2022-09-06T13:41:34.440Z,98390.28
2022-09-06T13:44:38.880Z,98400.66
2022-09-06T13:47:40.542Z,98394.53
2022-09-06T13:50:42.292Z,98393.31
2022-09-06T13:53:44.193Z,98392.97
2022-09-06T13:56:46.060Z,98392.78
2022-09-06T13:59:49.093Z,98384.41
2022-09-06T14:02:51.171Z,98384.41
2022-09-06T14:05:53.226Z,98386.97
2022-09-06T14:09:07.043Z,98389.88
2022-09-06T14:12:10.312Z,98396.00
2022-09-06T14:15:13.467Z,98385.66
2022-09-06T14:18:15.209Z,98388.84
2022-09-06T14:21:16.878Z,98395.31
2022-09-06T14:24:18.981Z,98388.94
2022-09-06T14:27:21.135Z,98387.91
2022-09-06T14:30:24.475Z,98387.69
2022-09-06T14:33:26.596Z,98389.00
2022-09-06T14:36:30.766Z,98382.03
2022-09-06T14:39:32.647Z,98387.69
2022-09-06T14:42:34.616Z,98381.66
2022-09-06T14:45:37.735Z,98378.91
2022-09-06T14:48:42.289Z,98380.66
2022-09-06T14:51:46.264Z,98383.25
2022-09-06T14:54:48.240Z,98382.03
2022-09-06T14:57:50.316Z,98374.34
2022-09-06T15:00:55.634Z,98366.31
2022-09-06T15:03:59.300Z,98362.53
2022-09-06T15:07:01.084Z,98360.84
2022-09-06T15:10:03.306Z,98354.88
2022-09-06T15:13:05.522Z,98350.25
2022-09-06T15:16:09.512Z,98342.41
2022-09-06T15:19:11.309Z,98341.31
2022-09-06T15:22:15.428Z,98341.81
2022-09-06T15:25:17.193Z,98339.78
2022-09-06T15:28:19.450Z,98327.50
2022-09-06T15:31:22.811Z,98337.09
2022-09-06T15:34:25.373Z,98339.16
2022-09-06T15:37:27.121Z,98337.66
2022-09-06T15:40:28.973Z,98340.09
2022-09-06T15:43:32.355Z,98333.34
2022-09-06T15:46:42.936Z,98335.75
2022-09-06T15:49:44.833Z,98321.78
2022-09-06T15:52:46.582Z,98318.69
2022-09-06T15:55:58.231Z,98319.53
2022-09-06T15:59:00.447Z,98316.78
2022-09-06T16:02:03.633Z,98306.22
2022-09-06T16:05:06.038Z,98303.97
2022-09-06T16:08:07.667Z,98305.56
2022-09-06T16:11:17.958Z,98303.53
2022-09-06T16:14:19.714Z,98299.28
2022-09-06T16:17:23.968Z,98290.22
2022-09-06T16:20:26.671Z,98290.25
2022-09-06T16:23:29.629Z,98293.72
2022-09-06T16:26:32.511Z,98293.09
2022-09-06T16:29:34.467Z,98296.72
2022-09-06T16:32:37.586Z,98283.06
2022-09-06T16:35:39.640Z,98288.75
2022-09-06T16:38:41.727Z,98284.84
2022-09-06T16:41:44.551Z,98287.41
2022-09-06T16:44:46.163Z,98287.75
2022-09-06T16:47:49.344Z,98282.16
2022-09-06T16:50:51.017Z,98286.63
2022-09-06T16:53:53.486Z,98281.16
2022-09-06T16:56:55.565Z,98282.38
2022-09-06T16:59:57.502Z,98291.44
2022-09-06T17:03:01.116Z,98296.03
2022-09-06T17:06:07.123Z,98298.75
2022-09-06T17:09:08.876Z,98298.59
2022-09-06T17:12:10.453Z,98306.63
2022-09-06T17:15:11.954Z,98311.91
2022-09-06T17:18:15.261Z,98308.97
2022-09-06T17:21:16.823Z,98317.00
2022-09-06T17:24:19.010Z,98310.50
2022-09-06T17:27:20.987Z,98309.16
2022-09-06T17:30:22.890Z,98305.38
2022-09-06T17:33:26.177Z,98307.94
2022-09-06T17:36:30.588Z,98300.03
2022-09-06T17:39:32.645Z,98301.72
2022-09-06T17:42:34.614Z,98300.50
2022-09-06T17:45:37.132Z,98302.03
2022-09-06T17:48:40.326Z,98313.56
2022-09-06T17:51:42.032Z,98310.84
2022-09-06T17:54:44.274Z,98312.34
2022-09-06T17:57:46.083Z,98314.00
2022-09-06T18:00:47.839Z,98306.66
2022-09-06T18:03:51.863Z,98309.19
2022-09-06T18:06:53.669Z,98314.38
2022-09-06T18:09:55.502Z,98305.84
2022-09-06T18:12:57.090Z,98311.09
2022-09-06T18:15:59.086Z,98314.31
2022-09-06T18:19:04.577Z,98313.78
2022-09-06T18:22:06.307Z,98309.47
2022-09-06T18:25:08.991Z,98312.00
2022-09-06T18:28:10.639Z,98319.63
2022-09-06T18:31:13.253Z,98315.38
2022-09-06T18:34:16.976Z,98314.69
2022-09-06T18:37:18.609Z,98308.53
2022-09-06T18:40:20.737Z,98315.16
2022-09-06T18:43:23.392Z,98319.19
2022-09-06T18:46:25.061Z,98313.22
2022-09-06T18:49:28.694Z,98318.84
2022-09-06T18:52:30.331Z,98307.03
2022-09-06T18:55:38.181Z,98317.06
2022-09-06T18:58:40.449Z,98315.34
2022-09-06T19:01:43.395Z,98325.56
2022-09-06T19:04:48.430Z,98314.97
2022-09-06T19:07:50.019Z,98326.88
2022-09-06T19:10:58.670Z,98326.16
2022-09-06T19:14:02.888Z,98331.91
2022-09-06T19:17:04.434Z,98326.06
2022-09-06T19:20:10.892Z,98322.97
2022-09-06T19:23:12.597Z,98328.34
2022-09-06T19:26:17.778Z,98331.38
2022-09-06T19:29:19.599Z,98335.41
2022-09-06T19:32:22.306Z,98326.88
2022-09-06T19:35:25.467Z,98328.88
2022-09-06T19:38:27.925Z,98320.16
2022-09-06T19:41:34.319Z,98326.09
2022-09-06T19:44:36.146Z,98314.81
2022-09-06T19:47:37.723Z,98318.84
2022-09-06T19:50:42.689Z,98309.28
2022-09-06T19:53:47.607Z,98310.75
2022-09-06T19:56:49.303Z,98306.63
2022-09-06T19:59:50.876Z,98306.09
2022-09-06T20:02:54.960Z,98298.81
2022-09-06T20:05:58.351Z,98295.34
2022-09-06T20:09:03.599Z,98288.53
2022-09-06T20:12:05.384Z,98290.41
2022-09-06T20:15:09.916Z,98288.00
2022-09-06T20:18:11.510Z,98296.28
2022-09-06T20:21:15.069Z,98282.97
2022-09-06T20:24:16.756Z,98270.38
2022-09-06T20:27:18.364Z,98269.38
2022-09-06T20:30:19.892Z,98267.13
2022-09-06T20:33:22.008Z,98270.00
2022-09-06T20:36:25.278Z,98262.00
2022-09-06T20:39:27.107Z,98260.31
2022-09-06T20:42:28.829Z,98256.84
2022-09-06T20:45:31.315Z,98260.06
2022-09-06T20:48:33.611Z,98250.63
2022-09-06T20:51:45.873Z,98251.25
2022-09-06T20:54:48.380Z,98242.69
2022-09-06T20:57:50.035Z,98240.75
2022-09-06T21:00:52.295Z,98238.78
2022-09-06T21:03:55.544Z,98239.66
2022-09-06T21:06:58.759Z,98234.53
2022-09-06T21:10:00.375Z,98245.13
2022-09-06T21:13:02.011Z,98245.81
2022-09-06T21:16:04.258Z,98250.56
2022-09-06T21:19:06.729Z,98251.88
2022-09-06T21:22:09.950Z,98254.78
2022-09-06T21:25:12.043Z,98255.31
2022-09-06T21:28:13.603Z,98254.06
2022-09-06T21:31:16.146Z,98255.34
2022-09-06T21:34:17.982Z,98254.38
2022-09-06T21:37:21.428Z,98247.84
2022-09-06T21:40:22.964Z,98253.00
2022-09-06T21:43:24.683Z,98245.00
2022-09-06T21:46:31.915Z,98242.16
2022-09-06T21:49:34.814Z,98241.28
2022-09-06T21:52:37.811Z,98237.72
2022-09-06T21:55:39.669Z,98238.59
2022-09-06T21:58:41.558Z,98239.44
2022-09-06T22:01:45.273Z,98235.00
2022-09-06T22:04:47.411Z,98229.59
2022-09-06T22:07:50.264Z,98237.88
2022-09-06T22:10:51.989Z,98243.31
2022-09-06T22:13:53.743Z,98241.16
2022-09-06T22:16:55.405Z,98232.31
2022-09-06T22:19:57.264Z,98236.03
2022-09-06T22:23:01.687Z,98236.34
2022-09-06T22:26:04.306Z,98228.50
2022-09-06T22:29:07.310Z,98231.50
2022-09-06T22:32:09.356Z,98226.22
2022-09-06T22:35:10.949Z,98226.50
2022-09-06T22:38:14.399Z,98224.81
2022-09-06T22:41:15.955Z,98226.94
2022-09-06T22:44:19.666Z,98220.53
2022-09-06T22:47:21.565Z,98215.81
2022-09-06T22:50:23.138Z,98215.13
2022-09-06T22:53:26.589Z,98215.69
2022-09-06T22:56:28.806Z,98209.72
2022-09-06T22:59:31.219Z,98201.84
2022-09-06T23:02:33.314Z,98203.00
2022-09-06T23:05:35.052Z,98206.84
2022-09-06T23:08:38.961Z,98207.25
2022-09-06T23:11:40.856Z,98205.13
2022-09-06T23:14:42.644Z,98195.44
2022-09-06T23:17:44.392Z,98192.13
2022-09-06T23:20:46.339Z,98189.72
2022-09-06T23:23:50.795Z,98178.88
2022-09-06T23:26:52.709Z,98182.03
2022-09-06T23:29:54.517Z,98174.06
2022-09-06T23:32:56.692Z,98164.63
2022-09-06T23:35:58.977Z,98169.75
2022-09-06T23:39:02.457Z,98175.31
2022-09-06T23:42:04.285Z,98176.75
2022-09-06T23:45:06.407Z,98172.63
2022-09-06T23:48:11.376Z,98170.06
2022-09-06T23:51:13.267Z,98171.34
2022-09-06T23:54:16.491Z,98177.88
2022-09-06T23:57:18.138Z,98170.91
